sensor_id;sensor_type;location;lat;lon;timestamp;pressure;altitude;pressure_sealevel;temperature;humidity
47883;BME280;37739;50.350;7.578;2023-04-01T00:01:28;97861.88;;;10.09;79.91
47883;BME280;37739;50.350;7.578;2023-04-01T00:03:56;97864.41;;;10.06;80.07
47883;BME280;37739;50.350;7.578;2023-04-01T00:06:21;97858.44;;;10.05;80.13
47883;BME280;37739;50.350;7.578;2023-04-01T00:08:52;97864.38;;;10.04;79.99
47883;BME280;37739;50.350;7.578;2023-04-01T00:11:22;97879.75;;;10.04;80.17
47883;BME280;37739;50.350;7.578;2023-04-01T00:13:48;97860.13;;;10.05;80.02
47883;BME280;37739;50.350;7.578;2023-04-01T00:16:15;97869.50;;;10.04;79.92
47883;BME280;37739;50.350;7.578;2023-04-01T00:18:41;97864.41;;;10.07;79.93
47883;BME280;37739;50.350;7.578;2023-04-01T00:21:09;97866.09;;;10.05;79.98
47883;BME280;37739;50.350;7.578;2023-04-01T00:23:37;97866.97;;;10.06;79.90
47883;BME280;37739;50.350;7.578;2023-04-01T00:26:03;97866.94;;;10.01;79.85
47883;BME280;37739;50.350;7.578;2023-04-01T00:28:28;97862.63;;;10.00;79.83
47883;BME280;37739;50.350;7.578;2023-04-01T00:30:54;97871.16;;;9.97;80.19
47883;BME280;37739;50.350;7.578;2023-04-01T00:33:19;97865.19;;;10.00;79.86
47883;BME280;37739;50.350;7.578;2023-04-01T00:35:45;97862.66;;;10.01;79.57
47883;BME280;37739;50.350;7.578;2023-04-01T00:38:10;97858.41;;;10.03;79.75
47883;BME280;37739;50.350;7.578;2023-04-01T00:40:41;97868.66;;;10.03;79.26
47883;BME280;37739;50.350;7.578;2023-04-01T00:43:16;97860.94;;;10.02;79.83
47883;BME280;37739;50.350;7.578;2023-04-01T00:45:45;97865.25;;;10.05;79.62
47883;BME280;37739;50.350;7.578;2023-04-01T00:48:18;97865.22;;;10.01;79.46
47883;BME280;37739;50.350;7.578;2023-04-01T00:50:50;97862.69;;;10.03;79.76
47883;BME280;37739;50.350;7.578;2023-04-01T00:53:18;97872.88;;;10.00;79.13
47883;BME280;37739;50.350;7.578;2023-04-01T00:55:53;97870.31;;;9.98;79.65
47883;BME280;37739;50.350;7.578;2023-04-01T00:58:24;97876.31;;;10.00;79.82
47883;BME280;37739;50.350;7.578;2023-04-01T01:00:51;97868.59;;;9.97;79.55
47883;BME280;37739;50.350;7.578;2023-04-01T01:03:19;97860.06;;;9.98;79.23
47883;BME280;37739;50.350;7.578;2023-04-01T01:06:10;97857.50;;;9.98;79.60
47883;BME280;37739;50.350;7.578;2023-04-01T01:11:10;97863.50;;;9.99;79.57
47883;BME280;37739;50.350;7.578;2023-04-01T01:13:49;97849.81;;;9.95;79.58
47883;BME280;37739;50.350;7.578;2023-04-01T01:16:28;97846.34;;;9.90;79.78
47883;BME280;37739;50.350;7.578;2023-04-01T01:19:30;97850.63;;;9.93;79.37
47883;BME280;37739;50.350;7.578;2023-04-01T01:27:39;97849.69;;;9.83;80.33
47883;BME280;37739;50.350;7.578;2023-04-01T01:30:15;97852.31;;;9.88;79.82
47883;BME280;37739;50.350;7.578;2023-04-01T01:32:55;97846.34;;;9.90;79.72
47883;BME280;37739;50.350;7.578;2023-04-01T01:35:36;97849.72;;;9.86;79.92
47883;BME280;37739;50.350;7.578;2023-04-01T01:38:08;97851.41;;;9.82;79.99
47883;BME280;37739;50.350;7.578;2023-04-01T01:40:36;97848.84;;;9.82;79.90
47883;BME280;37739;50.350;7.578;2023-04-01T01:43:10;97845.44;;;9.82;80.03
47883;BME280;37739;50.350;7.578;2023-04-01T01:45:42;97846.28;;;9.82;79.90
47883;BME280;37739;50.350;7.578;2023-04-01T01:48:10;97843.72;;;9.82;79.76
47883;BME280;37739;50.350;7.578;2023-04-01T01:50:37;97836.91;;;9.86;79.71
47883;BME280;37739;50.350;7.578;2023-04-01T01:53:11;97851.34;;;9.79;79.58
47883;BME280;37739;50.350;7.578;2023-04-01T01:55:44;97839.38;;;9.75;79.83
47883;BME280;37739;50.350;7.578;2023-04-01T02:00:44;97826.66;;;9.81;79.44
47883;BME280;37739;50.350;7.578;2023-04-01T02:03:14;97827.50;;;9.82;79.40
47883;BME280;37739;50.350;7.578;2023-04-01T02:05:44;97840.25;;;9.77;79.40
47883;BME280;37739;50.350;7.578;2023-04-01T02:08:16;97824.91;;;9.76;79.42
47883;BME280;37739;50.350;7.578;2023-04-01T02:10:49;97844.53;;;9.78;79.45
47883;BME280;37739;50.350;7.578;2023-04-01T02:13:36;97832.59;;;9.80;79.53
47883;BME280;37739;50.350;7.578;2023-04-01T02:16:08;97840.19;;;9.71;79.54
47883;BME280;37739;50.350;7.578;2023-04-01T02:18:36;97831.63;;;9.68;79.63
47883;BME280;37739;50.350;7.578;2023-04-01T02:21:04;97847.94;;;9.76;79.69
47883;BME280;37739;50.350;7.578;2023-04-01T02:23:35;97837.69;;;9.74;79.55
47883;BME280;37739;50.350;7.578;2023-04-01T02:26:02;97845.38;;;9.76;79.64
47883;BME280;37739;50.350;7.578;2023-04-01T02:28:31;97850.50;;;9.79;79.65
47883;BME280;37739;50.350;7.578;2023-04-01T02:30:59;97845.34;;;9.74;79.63
47883;BME280;37739;50.350;7.578;2023-04-01T02:33:27;97835.06;;;9.70;79.69
47883;BME280;37739;50.350;7.578;2023-04-01T02:35:55;97856.38;;;9.67;79.82
47883;BME280;37739;50.350;7.578;2023-04-01T02:38:23;97837.63;;;9.70;80.03
47883;BME280;37739;50.350;7.578;2023-04-01T02:40:59;97853.84;;;9.70;80.15
47883;BME280;37739;50.350;7.578;2023-04-01T02:43:27;97854.69;;;9.69;80.07
47883;BME280;37739;50.350;7.578;2023-04-01T02:45:53;97845.25;;;9.63;80.32
47883;BME280;37739;50.350;7.578;2023-04-01T02:48:21;97854.66;;;9.65;80.28
47883;BME280;37739;50.350;7.578;2023-04-01T02:50:49;97841.88;;;9.68;80.25
47883;BME280;37739;50.350;7.578;2023-04-01T02:53:15;97848.69;;;9.67;80.18
47883;BME280;37739;50.350;7.578;2023-04-01T02:55:41;97854.63;;;9.63;80.34
47883;BME280;37739;50.350;7.578;2023-04-01T02:58:10;97848.66;;;9.64;80.09
47883;BME280;37739;50.350;7.578;2023-04-01T03:00:35;97848.69;;;9.67;80.07
47883;BME280;37739;50.350;7.578;2023-04-01T03:03:01;97839.28;;;9.65;80.01
47883;BME280;37739;50.350;7.578;2023-04-01T03:05:27;97839.28;;;9.65;80.26
47883;BME280;37739;50.350;7.578;2023-04-01T03:07:55;97835.84;;;9.61;80.07
47883;BME280;37739;50.350;7.578;2023-04-01T03:10:20;97829.03;;;9.61;80.42
47883;BME280;37739;50.350;7.578;2023-04-01T03:12:46;97847.81;;;9.65;80.22
47883;BME280;37739;50.350;7.578;2023-04-01T03:15:12;97832.50;;;9.67;80.37
47883;BME280;37739;50.350;7.578;2023-04-01T03:17:42;97835.91;;;9.69;79.89
47883;BME280;37739;50.350;7.578;2023-04-01T03:20:08;97835.03;;;9.65;80.13
47883;BME280;37739;50.350;7.578;2023-04-01T03:22:34;97836.72;;;9.63;80.17
47883;BME280;37739;50.350;7.578;2023-04-01T03:25:00;97840.97;;;9.64;79.98
47883;BME280;37739;50.350;7.578;2023-04-01T03:27:28;97845.25;;;9.63;79.86
47883;BME280;37739;50.350;7.578;2023-04-01T03:29:53;97829.91;;;9.65;79.85
47883;BME280;37739;50.350;7.578;2023-04-01T03:32:18;97827.34;;;9.65;79.59
47883;BME280;37739;50.350;7.578;2023-04-01T03:34:44;97823.06;;;9.62;79.87
47883;BME280;37739;50.350;7.578;2023-04-01T03:37:12;97825.63;;;9.62;80.11
47883;BME280;37739;50.350;7.578;2023-04-01T03:39:37;97821.34;;;9.63;79.83
47883;BME280;37739;50.350;7.578;2023-04-01T03:42:03;97842.72;;;9.65;79.92
47883;BME280;37739;50.350;7.578;2023-04-01T03:44:32;97826.47;;;9.61;79.99
47883;BME280;37739;50.350;7.578;2023-04-01T03:46:57;97828.19;;;9.62;80.28
47883;BME280;37739;50.350;7.578;2023-04-01T03:49:23;97826.47;;;9.61;80.19
47883;BME280;37739;50.350;7.578;2023-04-01T03:51:50;97825.59;;;9.61;80.27
47883;BME280;37739;50.350;7.578;2023-04-01T03:54:18;97823.88;;;9.60;80.36
47883;BME280;37739;50.350;7.578;2023-04-01T03:56:45;97833.25;;;9.58;80.45
47883;BME280;37739;50.350;7.578;2023-04-01T03:59:13;97835.81;;;9.59;80.02
47883;BME280;37739;50.350;7.578;2023-04-01T04:01:38;97829.78;;;9.54;80.29
47883;BME280;37739;50.350;7.578;2023-04-01T04:04:06;97842.63;;;9.56;80.35
47883;BME280;37739;50.350;7.578;2023-04-01T04:06:34;97832.34;;;9.54;80.40
47883;BME280;37739;50.350;7.578;2023-04-01T04:09:02;97830.66;;;9.56;80.60
47883;BME280;37739;50.350;7.578;2023-04-01T04:11:31;97830.69;;;9.55;80.32
47883;BME280;37739;50.350;7.578;2023-04-01T04:13:57;97822.97;;;9.52;80.76
47883;BME280;37739;50.350;7.578;2023-04-01T04:16:22;97823.81;;;9.52;80.88
47883;BME280;37739;50.350;7.578;2023-04-01T04:18:47;97819.56;;;9.54;80.49
47883;BME280;37739;50.350;7.578;2023-04-01T04:21:14;97827.25;;;9.56;80.65
47883;BME280;37739;50.350;7.578;2023-04-01T04:23:40;97821.25;;;9.51;80.71
47883;BME280;37739;50.350;7.578;2023-04-01T04:26:10;97817.00;;;9.51;80.45
47883;BME280;37739;50.350;7.578;2023-04-01T04:28:38;97818.69;;;9.52;80.29
47883;BME280;37739;50.350;7.578;2023-04-01T04:31:04;97812.72;;;9.52;80.15
47883;BME280;37739;50.350;7.578;2023-04-01T04:33:33;97829.81;;;9.53;80.21
47883;BME280;37739;50.350;7.578;2023-04-01T04:36:02;97821.31;;;9.58;80.26
47883;BME280;37739;50.350;7.578;2023-04-01T04:38:30;97822.13;;;9.54;79.92
47883;BME280;37739;50.350;7.578;2023-04-01T04:40:56;97831.50;;;9.54;79.91
47883;BME280;37739;50.350;7.578;2023-04-01T04:43:24;97830.59;;;9.46;80.04
47883;BME280;37739;50.350;7.578;2023-04-01T04:45:52;97822.91;;;9.46;80.35
47883;BME280;37739;50.350;7.578;2023-04-01T04:48:17;97830.63;;;9.50;80.52
47883;BME280;37739;50.350;7.578;2023-04-01T04:50:50;97831.47;;;9.52;80.23
47883;BME280;37739;50.350;7.578;2023-04-01T04:53:20;97828.06;;;9.52;80.49
47883;BME280;37739;50.350;7.578;2023-04-01T04:55:49;97834.03;;;9.49;80.56
47883;BME280;37739;50.350;7.578;2023-04-01T04:58:16;97830.66;;;9.56;80.40
47883;BME280;37739;50.350;7.578;2023-04-01T05:00:41;97825.50;;;9.52;80.15
47883;BME280;37739;50.350;7.578;2023-04-01T05:03:07;97823.81;;;9.52;80.42
47883;BME280;37739;50.350;7.578;2023-04-01T05:05:33;97833.19;;;9.50;80.41
47883;BME280;37739;50.350;7.578;2023-04-01T05:08:00;97834.03;;;9.49;80.42
47883;BME280;37739;50.350;7.578;2023-04-01T05:10:26;97839.16;;;9.49;80.49
47883;BME280;37739;50.350;7.578;2023-04-01T05:12:54;97832.31;;;9.48;80.27
47883;BME280;37739;50.350;7.578;2023-04-01T05:15:20;97834.88;;;9.48;80.79
47883;BME280;37739;50.350;7.578;2023-04-01T05:17:45;97834.00;;;9.48;80.66
47883;BME280;37739;50.350;7.578;2023-04-01T05:20:12;97839.16;;;9.49;80.45
47883;BME280;37739;50.350;7.578;2023-04-01T05:22:38;97838.28;;;9.47;80.57
47883;BME280;37739;50.350;7.578;2023-04-01T05:25:05;97831.44;;;9.48;80.78
47883;BME280;37739;50.350;7.578;2023-04-01T05:27:31;97841.69;;;9.48;80.88
47883;BME280;37739;50.350;7.578;2023-04-01T05:29:57;97829.72;;;9.47;81.27
47883;BME280;37739;50.350;7.578;2023-04-01T05:32:22;97833.97;;;9.44;81.67
47883;BME280;37739;50.350;7.578;2023-04-01T05:34:53;97831.41;;;9.43;81.91
47883;BME280;37739;50.350;7.578;2023-04-01T05:37:26;97843.31;;;9.39;82.88
47883;BME280;37739;50.350;7.578;2023-04-01T05:39:51;97840.78;;;9.44;82.66
47883;BME280;37739;50.350;7.578;2023-04-01T05:42:24;97839.97;;;9.47;83.25
47883;BME280;37739;50.350;7.578;2023-04-01T05:44:54;97838.28;;;9.50;82.88
47883;BME280;37739;50.350;7.578;2023-04-01T05:47:20;97840.84;;;9.50;83.00
47883;BME280;37739;50.350;7.578;2023-04-01T05:49:46;97840.84;;;9.50;82.95
47883;BME280;37739;50.350;7.578;2023-04-01T05:52:13;97848.50;;;9.46;83.26
47883;BME280;37739;50.350;7.578;2023-04-01T05:54:41;97841.66;;;9.43;83.59
47883;BME280;37739;50.350;7.578;2023-04-01T05:57:07;97842.53;;;9.48;83.73
47883;BME280;37739;50.350;7.578;2023-04-01T05:59:34;97847.66;;;9.45;83.88
47883;BME280;37739;50.350;7.578;2023-04-01T06:02:00;97834.78;;;9.40;84.17
47883;BME280;37739;50.350;7.578;2023-04-01T06:04:31;97840.81;;;9.46;84.03
47883;BME280;37739;50.350;7.578;2023-04-01T06:06:58;97840.84;;;9.50;83.21
47883;BME280;37739;50.350;7.578;2023-04-01T06:09:29;97845.13;;;9.50;83.06
47883;BME280;37739;50.350;7.578;2023-04-01T06:14:59;97849.47;;;9.57;83.10
47883;BME280;37739;50.350;7.578;2023-04-01T06:17:51;97848.56;;;9.52;83.44
47883;BME280;37739;50.350;7.578;2023-04-01T06:20:47;97850.28;;;9.54;83.32
47883;BME280;37739;50.350;7.578;2023-04-01T06:26:15;97876.69;;;9.50;83.82
47883;BME280;37739;50.350;7.578;2023-04-01T06:28:46;97863.94;;;9.53;83.71
47883;BME280;37739;50.350;7.578;2023-04-01T06:31:35;97869.13;;;9.61;83.33
47883;BME280;37739;50.350;7.578;2023-04-01T06:34:32;97873.41;;;9.60;83.82
47883;BME280;37739;50.350;7.578;2023-04-01T06:45:50;97868.34;;;9.70;83.23
47883;BME280;37739;50.350;7.578;2023-04-01T06:56:20;97868.38;;;9.73;83.17
47883;BME280;37739;50.350;7.578;2023-04-01T06:59:10;97876.94;;;9.75;83.51
47883;BME280;37739;50.350;7.578;2023-04-01T07:06:59;97869.25;;;9.75;82.83
47883;BME280;37739;50.350;7.578;2023-04-01T07:09:34;97875.22;;;9.72;83.21
47883;BME280;37739;50.350;7.578;2023-04-01T07:12:06;97878.63;;;9.73;83.39
47883;BME280;37739;50.350;7.578;2023-04-01T07:14:42;97871.84;;;9.79;82.86
47883;BME280;37739;50.350;7.578;2023-04-01T07:17:20;97882.94;;;9.77;83.13
47883;BME280;37739;50.350;7.578;2023-04-01T07:20:02;97881.22;;;9.76;83.28
47883;BME280;37739;50.350;7.578;2023-04-01T07:25:17;97892.34;;;9.79;83.34
47883;BME280;37739;50.350;7.578;2023-04-01T07:27:43;97890.69;;;9.85;83.00
47883;BME280;37739;50.350;7.578;2023-04-01T07:30:18;97896.69;;;9.87;83.15
47883;BME280;37739;50.350;7.578;2023-04-01T07:51:03;97922.41;;;10.00;84.18
47883;BME280;37739;50.350;7.578;2023-04-01T07:56:23;97919.91;;;10.08;83.76
47883;BME280;37739;50.350;7.578;2023-04-01T08:07:23;97916.53;;;10.11;83.67
47883;BME280;37739;50.350;7.578;2023-04-01T08:15:28;97928.63;;;10.24;83.47
47883;BME280;37739;50.350;7.578;2023-04-01T08:23:27;97939.84;;;10.37;82.95
47883;BME280;37739;50.350;7.578;2023-04-01T08:34:03;97948.56;;;10.59;82.38
47883;BME280;37739;50.350;7.578;2023-04-01T08:36:34;97946.84;;;10.59;82.74
47883;BME280;37739;50.350;7.578;2023-04-01T08:39:12;97945.13;;;10.57;83.89
47883;BME280;37739;50.350;7.578;2023-04-01T08:50:36;97948.50;;;10.54;86.31
47883;BME280;37739;50.350;7.578;2023-04-01T08:56:26;97956.19;;;10.50;86.46
47883;BME280;37739;50.350;7.578;2023-04-01T09:05:12;97948.53;;;10.56;86.55
47883;BME280;37739;50.350;7.578;2023-04-01T09:19:11;97955.28;;;10.46;87.68
47883;BME280;37739;50.350;7.578;2023-04-01T09:22:17;97964.75;;;10.53;87.40
47883;BME280;37739;50.350;7.578;2023-04-01T09:33:37;97976.00;;;10.71;88.13
47883;BME280;37739;50.350;7.578;2023-04-01T09:39:11;97981.16;;;10.75;88.24
47883;BME280;37739;50.350;7.578;2023-04-01T09:53:17;97982.91;;;10.78;88.93
47883;BME280;37739;50.350;7.578;2023-04-01T09:58:55;97985.50;;;10.84;89.55
47883;BME280;37739;50.350;7.578;2023-04-01T10:12:45;97999.16;;;10.83;88.46
47883;BME280;37739;50.350;7.578;2023-04-01T10:15:27;98002.59;;;10.84;89.81
47883;BME280;37739;50.350;7.578;2023-04-01T10:21:19;98020.53;;;10.80;88.79
47883;BME280;37739;50.350;7.578;2023-04-01T11:26:08;98022.50;;;11.23;87.76
47883;BME280;37739;50.350;7.578;2023-04-01T11:33:54;98040.50;;;11.29;86.57
47883;BME280;37739;50.350;7.578;2023-04-01T11:39:16;98036.22;;;11.27;85.77
47883;BME280;37739;50.350;7.578;2023-04-01T11:42:15;98049.09;;;11.30;85.42
47883;BME280;37739;50.350;7.578;2023-04-01T11:44:51;98047.38;;;11.30;85.36
47883;BME280;37739;50.350;7.578;2023-04-01T11:47:30;98051.69;;;11.34;85.14
47883;BME280;37739;50.350;7.578;2023-04-01T11:55:50;98047.47;;;11.50;83.72
47883;BME280;37739;50.350;7.578;2023-04-01T11:58:34;98058.66;;;11.62;83.71
47883;BME280;37739;50.350;7.578;2023-04-01T12:03:54;98061.31;;;11.72;83.03
47883;BME280;37739;50.350;7.578;2023-04-01T12:11:56;98068.13;;;11.73;82.59
47883;BME280;37739;50.350;7.578;2023-04-01T12:22:49;98077.56;;;11.73;81.03
47883;BME280;37739;50.350;7.578;2023-04-01T12:28:06;98081.84;;;11.72;80.05
47883;BME280;37739;50.350;7.578;2023-04-01T12:30:42;98090.44;;;11.76;80.09
47883;BME280;37739;50.350;7.578;2023-04-01T12:41:32;98111.88;;;11.86;81.56
47883;BME280;37739;50.350;7.578;2023-04-01T12:44:13;98103.31;;;11.85;81.98
47883;BME280;37739;50.350;7.578;2023-04-01T12:52:10;98117.06;;;11.90;82.38
47883;BME280;37739;50.350;7.578;2023-04-01T12:54:48;98118.72;;;11.87;82.63
47883;BME280;37739;50.350;7.578;2023-04-01T13:00:24;98115.28;;;11.85;83.51
47883;BME280;37739;50.350;7.578;2023-04-01T13:08:58;98125.53;;;11.77;84.48
47883;BME280;37739;50.350;7.578;2023-04-01T13:19:49;98123.03;;;11.89;86.08
47883;BME280;37739;50.350;7.578;2023-04-01T13:22:28;98127.34;;;11.90;86.19
47883;BME280;37739;50.350;7.578;2023-04-01T13:27:50;98123.00;;;11.85;85.07
47883;BME280;37739;50.350;7.578;2023-04-01T13:52:44;98135.19;;;12.20;87.19
47883;BME280;37739;50.350;7.578;2023-04-01T14:03:44;98141.09;;;12.00;83.15
47883;BME280;37739;50.350;7.578;2023-04-01T14:17:53;98148.88;;;12.11;81.54
47883;BME280;37739;50.350;7.578;2023-04-01T14:20:29;98159.19;;;12.23;79.68
47883;BME280;37739;50.350;7.578;2023-04-01T14:44:53;98170.53;;;12.91;74.37
47883;BME280;37739;50.350;7.578;2023-04-01T14:47:33;98175.69;;;13.04;74.05
47883;BME280;37739;50.350;7.578;2023-04-01T14:52:38;98183.44;;;13.22;73.98
47883;BME280;37739;50.350;7.578;2023-04-01T14:55:28;98176.56;;;13.07;72.23
47883;BME280;37739;50.350;7.578;2023-04-01T14:58:00;98177.41;;;12.95;72.79
47883;BME280;37739;50.350;7.578;2023-04-01T15:09:09;98185.94;;;12.67;71.09
47883;BME280;37739;50.350;7.578;2023-04-01T15:14:45;98203.94;;;12.65;71.44
47883;BME280;37739;50.350;7.578;2023-04-01T15:38:45;98222.72;;;12.46;70.76
47883;BME280;37739;50.350;7.578;2023-04-01T15:46:59;98234.69;;;12.37;71.14
47883;BME280;37739;50.350;7.578;2023-04-01T15:49:47;98245.84;;;12.38;71.52
47883;BME280;37739;50.350;7.578;2023-04-01T15:52:40;98245.81;;;12.35;71.02
47883;BME280;37739;50.350;7.578;2023-04-01T15:55:19;98244.97;;;12.39;71.65
47883;BME280;37739;50.350;7.578;2023-04-01T16:03:19;98248.41;;;12.38;70.86
47883;BME280;37739;50.350;7.578;2023-04-01T16:22:25;98275.06;;;12.60;70.92
47883;BME280;37739;50.350;7.578;2023-04-01T16:27:55;98281.06;;;12.51;71.12
47883;BME280;37739;50.350;7.578;2023-04-01T16:30:37;98288.75;;;12.48;70.50
47883;BME280;37739;50.350;7.578;2023-04-01T16:35:58;98286.16;;;12.44;70.53
47883;BME280;37739;50.350;7.578;2023-04-01T16:41:18;98285.25;;;12.38;70.93
47883;BME280;37739;50.350;7.578;2023-04-01T16:43:53;98295.56;;;12.43;71.29
47883;BME280;37739;50.350;7.578;2023-04-01T16:46:30;98297.28;;;12.40;70.54
47883;BME280;37739;50.350;7.578;2023-04-01T16:51:33;98310.97;;;12.38;71.27
47883;BME280;37739;50.350;7.578;2023-04-01T16:54:05;98317.00;;;12.41;71.47
47883;BME280;37739;50.350;7.578;2023-04-01T16:56:41;98322.13;;;12.36;71.40
47883;BME280;37739;50.350;7.578;2023-04-01T16:59:19;98322.09;;;12.34;71.62
47883;BME280;37739;50.350;7.578;2023-04-01T17:02:02;98324.63;;;12.27;71.27
47883;BME280;37739;50.350;7.578;2023-04-01T17:04:45;98328.84;;;12.20;70.82
47883;BME280;37739;50.350;7.578;2023-04-01T17:07:18;98334.88;;;12.21;71.38
47883;BME280;37739;50.350;7.578;2023-04-01T17:15:05;98348.50;;;12.09;70.24
47883;BME280;37739;50.350;7.578;2023-04-01T17:30:34;98365.53;;;11.97;71.16
47883;BME280;37739;50.350;7.578;2023-04-01T17:35:57;98374.00;;;11.89;71.82
47883;BME280;37739;50.350;7.578;2023-04-01T17:43:51;98384.28;;;11.89;71.76
47883;BME280;37739;50.350;7.578;2023-04-01T17:46:51;98392.88;;;11.91;71.69
47883;BME280;37739;50.350;7.578;2023-04-01T18:03:13;98421.03;;;11.82;72.11
47883;BME280;37739;50.350;7.578;2023-04-01T18:06:19;98420.16;;;11.79;72.07
47883;BME280;37739;50.350;7.578;2023-04-01T18:09:00;98427.00;;;11.79;72.05
47883;BME280;37739;50.350;7.578;2023-04-01T18:11:58;98432.84;;;11.64;72.33
47883;BME280;37739;50.350;7.578;2023-04-01T18:23:29;98463.28;;;11.30;73.63
47883;BME280;37739;50.350;7.578;2023-04-01T18:26:10;98470.88;;;11.23;76.12
47883;BME280;37739;50.350;7.578;2023-04-01T18:28:38;98469.00;;;11.12;80.27
47883;BME280;37739;50.350;7.578;2023-04-01T18:38:54;98479.16;;;11.02;84.62
47883;BME280;37739;50.350;7.578;2023-04-01T18:50:21;98498.66;;;10.90;88.29
47883;BME280;37739;50.350;7.578;2023-04-01T18:52:56;98508.88;;;10.86;88.59
47883;BME280;37739;50.350;7.578;2023-04-01T18:55:34;98504.72;;;10.95;88.31
47883;BME280;37739;50.350;7.578;2023-04-01T18:58:14;98513.22;;;10.91;89.13
47883;BME280;37739;50.350;7.578;2023-04-01T19:00:48;98527.00;;;10.98;88.87
47883;BME280;37739;50.350;7.578;2023-04-01T19:03:21;98526.97;;;10.96;88.90
47883;BME280;37739;50.350;7.578;2023-04-01T19:05:51;98526.94;;;10.93;89.32
47883;BME280;37739;50.350;7.578;2023-04-01T19:08:33;98537.28;;;10.99;89.28
47883;BME280;37739;50.350;7.578;2023-04-01T19:11:06;98542.34;;;10.95;88.35
47883;BME280;37739;50.350;7.578;2023-04-01T19:18:48;98547.47;;;10.95;89.15
47883;BME280;37739;50.350;7.578;2023-04-01T19:24:45;98554.31;;;10.94;90.15
47883;BME280;37739;50.350;7.578;2023-04-01T19:33:25;98572.38;;;10.99;90.66
47883;BME280;37739;50.350;7.578;2023-04-01T19:38:38;98570.56;;;10.95;90.45
47883;BME280;37739;50.350;7.578;2023-04-01T19:46:28;98582.63;;;11.00;90.37
47883;BME280;37739;50.350;7.578;2023-04-01T19:54:43;98592.91;;;10.99;89.81
47883;BME280;37739;50.350;7.578;2023-04-01T19:57:15;98597.06;;;10.94;90.34
47883;BME280;37739;50.350;7.578;2023-04-01T20:05:05;98608.31;;;11.02;89.96
47883;BME280;37739;50.350;7.578;2023-04-01T20:07:44;98608.31;;;11.02;90.10
47883;BME280;37739;50.350;7.578;2023-04-01T20:10:38;98614.25;;;10.98;90.16
47883;BME280;37739;50.350;7.578;2023-04-01T20:15:45;98616.00;;;10.99;87.36
47883;BME280;37739;50.350;7.578;2023-04-01T20:18:36;98618.56;;;10.99;86.05
47883;BME280;37739;50.350;7.578;2023-04-01T20:21:05;98621.03;;;10.94;85.04
47883;BME280;37739;50.350;7.578;2023-04-01T20:23:43;98627.00;;;10.95;84.24
47883;BME280;37739;50.350;7.578;2023-04-01T20:26:12;98630.38;;;10.91;83.82
47883;BME280;37739;50.350;7.578;2023-04-01T20:29:07;98634.66;;;10.90;83.01
47883;BME280;37739;50.350;7.578;2023-04-01T20:31:56;98627.75;;;10.86;82.33
47883;BME280;37739;50.350;7.578;2023-04-01T20:37:06;98633.69;;;10.85;81.81
47883;BME280;37739;50.350;7.578;2023-04-01T20:50:34;98645.53;;;10.77;81.91
47883;BME280;37739;50.350;7.578;2023-04-01T20:53:20;98648.94;;;10.77;81.94
47883;BME280;37739;50.350;7.578;2023-04-01T20:56:06;98657.47;;;10.75;81.82
47883;BME280;37739;50.350;7.578;2023-04-01T21:04:30;98660.00;;;10.73;81.43
47883;BME280;37739;50.350;7.578;2023-04-01T21:13:14;98666.81;;;10.71;81.27
47883;BME280;37739;50.350;7.578;2023-04-01T21:24:28;98679.56;;;10.67;80.41
47883;BME280;37739;50.350;7.578;2023-04-01T21:32:12;98692.34;;;10.65;81.16
47883;BME280;37739;50.350;7.578;2023-04-01T21:45:25;98705.88;;;10.58;80.72
47883;BME280;37739;50.350;7.578;2023-04-01T21:48:03;98712.66;;;10.53;80.51
47883;BME280;37739;50.350;7.578;2023-04-01T22:13:05;98744.00;;;10.41;80.15
47883;BME280;37739;50.350;7.578;2023-04-01T22:18:37;98734.59;;;10.40;79.83
47883;BME280;37739;50.350;7.578;2023-04-01T22:21:24;98742.22;;;10.35;79.57
47883;BME280;37739;50.350;7.578;2023-04-01T22:24:07;98742.22;;;10.37;80.25
47883;BME280;37739;50.350;7.578;2023-04-01T22:26:45;98745.66;;;10.39;79.92
47883;BME280;37739;50.350;7.578;2023-04-01T22:32:00;98749.84;;;10.34;80.16
47883;BME280;37739;50.350;7.578;2023-04-01T22:37:40;98751.28;;;10.22;80.13
47883;BME280;37739;50.350;7.578;2023-04-01T22:40:58;98753.09;;;10.27;80.48
47883;BME280;37739;50.350;7.578;2023-04-01T22:43:16;98752.19;;;10.25;80.45
47883;BME280;37739;50.350;7.578;2023-04-01T22:46:35;98759.03;;;10.24;80.71
47883;BME280;37739;50.350;7.578;2023-04-01T22:51:52;98758.88;;;10.18;81.02
47883;BME280;37739;50.350;7.578;2023-04-01T22:54:42;98761.44;;;10.18;81.18
47883;BME280;37739;50.350;7.578;2023-04-01T23:00:03;98762.97;;;10.10;81.49
47883;BME280;37739;50.350;7.578;2023-04-01T23:02:36;98774.16;;;10.13;82.05
47883;BME280;37739;50.350;7.578;2023-04-01T23:05:05;98775.81;;;10.11;81.97
47883;BME280;37739;50.350;7.578;2023-04-01T23:10:52;98774.06;;;10.09;82.98
47883;BME280;37739;50.350;7.578;2023-04-01T23:13:24;98779.97;;;10.06;83.23
47883;BME280;37739;50.350;7.578;2023-04-01T23:15:59;98784.22;;;10.06;83.36
47883;BME280;37739;50.350;7.578;2023-04-01T23:26:57;98798.44;;;9.93;83.99
47883;BME280;37739;50.350;7.578;2023-04-01T23:29:24;98805.22;;;9.91;84.13
47883;BME280;37739;50.350;7.578;2023-04-01T23:32:00;98815.47;;;9.89;84.40
47883;BME280;37739;50.350;7.578;2023-04-01T23:34:29;98805.22;;;9.91;84.70
47883;BME280;37739;50.350;7.578;2023-04-01T23:37:03;98806.09;;;9.90;84.59
47883;BME280;37739;50.350;7.578;2023-04-01T23:39:39;98816.31;;;9.90;85.02
47883;BME280;37739;50.350;7.578;2023-04-01T23:42:21;98816.28;;;9.88;85.15
47883;BME280;37739;50.350;7.578;2023-04-01T23:44:55;98820.56;;;9.88;85.39
47883;BME280;37739;50.350;7.578;2023-04-01T23:47:26;98815.34;;;9.85;85.38
47883;BME280;37739;50.350;7.578;2023-04-01T23:49:57;98821.31;;;9.83;86.03
47883;BME280;37739;50.350;7.578;2023-04-01T23:54:51;98838.41;;;9.85;86.11
47883;BME280;37739;50.350;7.578;2023-04-01T23:57:22;98835.88;;;9.86;86.00
